createdAt,value
2023-05-22T00:00:21.617Z,26.10
2023-05-22T00:02:50.758Z,26.06
2023-05-22T00:05:18.416Z,26.04
2023-05-22T00:07:46.760Z,26.02
2023-05-22T00:10:13.737Z,25.99
2023-05-22T00:12:40.723Z,25.97
2023-05-22T00:15:09.248Z,25.94
2023-05-22T00:17:36.569Z,25.90
2023-05-22T00:20:06.781Z,25.88
2023-05-22T00:22:36.597Z,25.87
2023-05-22T00:25:06.808Z,25.85
2023-05-22T00:27:34.371Z,25.83
2023-05-22T00:30:01.691Z,25.81
2023-05-22T00:32:29.078Z,25.81
2023-05-22T00:34:56.073Z,25.80
2023-05-22T00:37:23.119Z,25.80
2023-05-22T00:39:50.125Z,25.77
2023-05-22T00:42:18.876Z,25.75
2023-05-22T00:44:45.977Z,25.70
2023-05-22T00:47:12.983Z,25.65
2023-05-22T00:49:40.604Z,25.62
2023-05-22T00:52:09.015Z,25.59
2023-05-22T00:54:36.794Z,25.56
2023-05-22T00:57:05.145Z,25.54
2023-05-22T00:59:33.595Z,25.51
2023-05-22T01:02:01.527Z,25.48
2023-05-22T01:04:32.711Z,25.45
2023-05-22T01:07:02.741Z,25.42
2023-05-22T01:09:29.987Z,25.38
2023-05-22T01:12:05.952Z,25.34
2023-05-22T01:14:53.535Z,25.26
2023-05-22T01:17:34.593Z,25.24
2023-05-22T01:20:16.858Z,25.18
2023-05-22T01:23:26.164Z,25.08
2023-05-22T01:26:11.402Z,25.07
2023-05-22T01:29:00.881Z,25.02
2023-05-22T01:31:33.813Z,25.03
2023-05-22T01:34:03.212Z,25.02
2023-05-22T01:36:35.101Z,24.97
2023-05-22T01:39:05.985Z,24.95
2023-05-22T01:41:34.069Z,24.91
2023-05-22T01:44:03.064Z,24.88
2023-05-22T01:46:31.635Z,24.84
2023-05-22T01:48:59.126Z,24.81
2023-05-22T01:51:39.542Z,24.74
2023-05-22T01:54:18.016Z,24.69
2023-05-22T01:56:54.761Z,24.65
2023-05-22T01:59:32.847Z,24.61
2023-05-22T02:02:07.509Z,24.57
2023-05-22T02:05:00.618Z,24.50
2023-05-22T02:07:37.721Z,24.47
2023-05-22T02:10:08.432Z,24.44
2023-05-22T02:12:36.380Z,24.43
2023-05-22T02:15:06.053Z,24.42
2023-05-22T02:17:40.200Z,24.38
2023-05-22T02:20:15.186Z,24.34
2023-05-22T02:22:44.364Z,24.32
2023-05-22T02:25:14.352Z,24.29
2023-05-22T02:27:41.964Z,24.28
2023-05-22T02:30:09.944Z,24.26
2023-05-22T02:32:38.966Z,24.23
2023-05-22T02:35:06.719Z,24.20
2023-05-22T02:37:34.004Z,24.18
2023-05-22T02:40:01.008Z,24.17
2023-05-22T02:42:27.949Z,24.15
2023-05-22T02:44:54.866Z,24.13
2023-05-22T02:47:21.788Z,24.11
2023-05-22T02:49:50.108Z,24.09
2023-05-22T02:52:17.109Z,24.07
2023-05-22T02:54:44.329Z,24.05
2023-05-22T02:57:11.338Z,24.02
2023-05-22T02:59:38.707Z,24.01
2023-05-22T03:02:06.260Z,23.98
2023-05-22T03:04:34.038Z,23.98
2023-05-22T03:07:02.676Z,23.97
2023-05-22T03:09:29.688Z,23.96
2023-05-22T03:11:56.593Z,23.96
2023-05-22T03:14:23.602Z,23.96
2023-05-22T03:16:50.705Z,23.95
2023-05-22T03:19:17.875Z,23.95
2023-05-22T03:21:44.775Z,23.93
2023-05-22T03:24:13.037Z,23.95
2023-05-22T03:26:39.955Z,23.94
2023-05-22T03:29:06.881Z,23.95
2023-05-22T03:31:34.598Z,23.98
2023-05-22T03:34:02.203Z,23.98
2023-05-22T03:36:32.308Z,23.97
2023-05-22T03:38:59.474Z,23.98
2023-05-22T03:41:27.918Z,24.00
2023-05-22T03:43:54.808Z,23.99
2023-05-22T03:46:21.985Z,24.01
2023-05-22T03:48:48.936Z,24.02
2023-05-22T03:51:18.079Z,24.06
2023-05-22T03:53:46.232Z,24.09
2023-05-22T03:56:13.142Z,24.11
2023-05-22T03:58:41.388Z,24.13
2023-05-22T04:01:09.827Z,24.15
2023-05-22T04:03:37.094Z,24.17
2023-05-22T04:06:05.773Z,24.18
2023-05-22T04:08:33.018Z,24.17
2023-05-22T04:11:00.049Z,24.17
2023-05-22T04:13:27.723Z,24.18
2023-05-22T04:15:56.683Z,24.16
2023-05-22T04:18:23.685Z,24.17
2023-05-22T04:20:51.790Z,24.17
2023-05-22T04:23:18.826Z,24.19
2023-05-22T04:25:47.753Z,24.22
2023-05-22T04:28:17.453Z,24.23
2023-05-22T04:30:44.701Z,24.25
2023-05-22T04:33:13.453Z,24.25
2023-05-22T04:35:40.861Z,24.25
2023-05-22T04:38:07.855Z,24.28
2023-05-22T04:40:34.906Z,24.29
2023-05-22T04:43:01.893Z,24.30
2023-05-22T04:45:29.479Z,24.29
2023-05-22T04:47:56.599Z,24.28
2023-05-22T04:50:25.026Z,24.30
2023-05-22T04:52:53.342Z,24.30
2023-05-22T04:55:39.796Z,24.31
2023-05-22T04:58:28.446Z,24.33
2023-05-22T05:01:13.294Z,24.36
2023-05-22T05:03:40.298Z,24.42
2023-05-22T05:06:08.652Z,24.48
2023-05-22T05:08:35.641Z,24.53
2023-05-22T05:11:02.602Z,24.57
2023-05-22T05:13:29.577Z,24.61
2023-05-22T05:15:59.212Z,24.64
2023-05-22T05:18:26.591Z,24.68
2023-05-22T05:20:53.873Z,24.69
2023-05-22T05:23:22.272Z,24.72
2023-05-22T05:25:49.192Z,24.77
2023-05-22T05:28:16.092Z,24.83
2023-05-22T05:30:43.191Z,24.91
2023-05-22T05:33:10.331Z,24.96
2023-05-22T05:35:37.333Z,25.02
2023-05-22T05:38:04.272Z,25.05
2023-05-22T05:40:32.520Z,25.06
2023-05-22T05:42:59.506Z,25.08
2023-05-22T05:45:26.450Z,25.13
2023-05-22T05:47:53.402Z,25.19
2023-05-22T05:50:20.926Z,25.24
2023-05-22T05:52:47.895Z,25.29
2023-05-22T05:55:15.016Z,25.35
2023-05-22T05:57:43.425Z,25.38
2023-05-22T06:00:11.979Z,25.43
2023-05-22T06:02:39.028Z,25.48
2023-05-22T06:05:06.994Z,25.55
2023-05-22T06:07:34.295Z,25.59
2023-05-22T06:10:01.254Z,25.66
2023-05-22T06:12:28.260Z,25.71
2023-05-22T06:14:56.792Z,25.78
2023-05-22T06:17:23.900Z,25.81
2023-05-22T06:19:50.960Z,25.86
2023-05-22T06:22:17.983Z,25.90
2023-05-22T06:24:44.908Z,25.98
2023-05-22T06:27:11.802Z,26.05
2023-05-22T06:29:38.679Z,26.12
2023-05-22T06:32:07.902Z,26.19
2023-05-22T06:34:35.731Z,26.27
2023-05-22T06:37:04.028Z,26.31
2023-05-22T06:39:32.101Z,26.37
2023-05-22T06:41:59.196Z,26.44
2023-05-22T06:44:26.100Z,26.45
2023-05-22T06:46:53.192Z,26.46
2023-05-22T06:49:21.441Z,26.50
2023-05-22T06:51:48.415Z,26.53
2023-05-22T06:54:28.609Z,26.54
2023-05-22T06:56:55.687Z,26.55
2023-05-22T06:59:24.348Z,26.59
2023-05-22T07:02:05.405Z,26.65
2023-05-22T07:04:39.838Z,26.69
2023-05-22T07:07:09.795Z,26.76
2023-05-22T07:09:37.496Z,26.83
2023-05-22T07:12:06.524Z,26.91
2023-05-22T07:14:33.811Z,26.95
2023-05-22T07:17:01.128Z,26.97
2023-05-22T07:19:28.732Z,26.99
2023-05-22T07:21:58.729Z,27.05
2023-05-22T07:24:25.716Z,27.10
2023-05-22T07:26:52.643Z,27.15
2023-05-22T07:29:20.779Z,27.19
2023-05-22T07:31:49.417Z,27.17
2023-05-22T07:34:16.812Z,27.17
2023-05-22T07:36:43.806Z,27.16
2023-05-22T07:39:12.123Z,27.17
2023-05-22T07:41:39.818Z,27.14
2023-05-22T07:44:07.309Z,27.04
2023-05-22T07:46:37.440Z,26.87
2023-05-22T07:49:04.519Z,26.76
2023-05-22T07:51:32.050Z,26.71
2023-05-22T07:56:32.458Z,26.54
2023-05-22T07:59:01.035Z,26.53
2023-05-22T08:01:27.959Z,26.55
2023-05-22T08:03:54.970Z,26.62
2023-05-22T08:06:23.684Z,26.68
2023-05-22T08:08:52.948Z,26.72
2023-05-22T08:11:20.014Z,26.71
2023-05-22T08:13:48.621Z,26.69
2023-05-22T08:16:15.747Z,26.68
2023-05-22T08:18:42.706Z,26.68
2023-05-22T08:21:09.622Z,26.64
2023-05-22T08:23:38.390Z,26.62
2023-05-22T08:26:08.695Z,26.60
2023-05-22T08:28:36.715Z,26.58
2023-05-22T08:31:05.180Z,26.55
2023-05-22T08:33:32.128Z,26.52
2023-05-22T08:35:59.054Z,26.52
2023-05-22T08:38:25.981Z,26.53
2023-05-22T08:40:57.021Z,26.58
2023-05-22T08:43:24.577Z,26.64
2023-05-22T08:45:59.566Z,26.71
2023-05-22T08:48:33.457Z,26.77
2023-05-22T08:51:04.789Z,26.79
2023-05-22T08:53:35.491Z,26.80
2023-05-22T08:56:04.895Z,26.77
2023-05-22T08:58:34.575Z,26.74
2023-05-22T09:01:03.393Z,26.74
2023-05-22T09:03:35.038Z,26.71
2023-05-22T09:06:04.503Z,26.72
2023-05-22T09:08:31.413Z,26.74
2023-05-22T09:10:58.440Z,26.80
2023-05-22T09:13:27.523Z,26.85
2023-05-22T09:15:59.491Z,26.92
2023-05-22T09:18:29.550Z,26.97
2023-05-22T09:21:03.697Z,26.98
2023-05-22T09:23:33.833Z,26.97
2023-05-22T09:26:02.740Z,26.95
2023-05-22T09:28:35.016Z,26.88
2023-05-22T09:31:04.401Z,26.85
2023-05-22T09:33:32.247Z,26.84
2023-05-22T09:36:01.435Z,26.81
2023-05-22T09:38:30.110Z,26.72
2023-05-22T09:40:57.156Z,26.66
2023-05-22T09:43:25.566Z,26.60
2023-05-22T09:45:58.129Z,26.59
2023-05-22T09:48:25.543Z,26.65
2023-05-22T09:50:54.585Z,26.75
2023-05-22T09:53:27.991Z,26.83
2023-05-22T09:55:57.964Z,26.93
2023-05-22T09:58:27.831Z,27.02
2023-05-22T10:00:56.469Z,27.07
2023-05-22T10:03:26.495Z,27.14
2023-05-22T10:05:56.781Z,27.24
2023-05-22T10:08:28.632Z,27.34
2023-05-22T10:10:56.064Z,27.44
2023-05-22T10:13:26.097Z,27.50
2023-05-22T10:15:54.345Z,27.57
2023-05-22T10:18:23.050Z,27.62
2023-05-22T10:20:50.704Z,27.72
2023-05-22T10:23:18.656Z,27.80
2023-05-22T10:25:47.282Z,27.84
2023-05-22T10:28:21.522Z,27.87
2023-05-22T10:31:00.309Z,27.82
2023-05-22T10:33:36.665Z,27.81
2023-05-22T10:36:08.595Z,27.79
2023-05-22T10:38:53.804Z,27.75
2023-05-22T10:41:23.368Z,27.76
2023-05-22T10:43:51.255Z,27.74
2023-05-22T10:46:18.912Z,27.71
2023-05-22T10:48:47.870Z,27.70
2023-05-22T10:51:19.280Z,27.70
2023-05-22T10:53:53.200Z,27.69
2023-05-22T10:56:25.122Z,27.71
2023-05-22T10:59:05.034Z,27.69
2023-05-22T11:01:37.732Z,27.69
2023-05-22T11:04:15.941Z,27.64
2023-05-22T11:06:46.003Z,27.63
2023-05-22T11:09:26.729Z,27.61
2023-05-22T11:12:18.350Z,27.60
2023-05-22T11:14:54.102Z,27.61
2023-05-22T11:17:23.441Z,27.64
2023-05-22T11:20:00.048Z,27.61
2023-05-22T11:22:35.983Z,27.60
2023-05-22T11:25:10.622Z,27.57
2023-05-22T11:27:41.735Z,27.59
2023-05-22T11:30:10.945Z,27.62
2023-05-22T11:32:41.170Z,27.66
2023-05-22T11:35:08.945Z,27.71
2023-05-22T11:37:39.764Z,27.70
2023-05-22T11:40:08.717Z,27.71
2023-05-22T11:42:38.360Z,27.72
2023-05-22T11:45:07.143Z,27.72
2023-05-22T11:47:34.706Z,27.68
2023-05-22T11:50:02.290Z,27.64
2023-05-22T11:52:33.366Z,27.62
2023-05-22T11:55:00.674Z,27.62
2023-05-22T11:57:28.269Z,27.66
2023-05-22T11:59:56.568Z,27.71
2023-05-22T12:02:23.584Z,27.72
2023-05-22T12:04:55.573Z,27.76
2023-05-22T12:07:25.852Z,27.81
2023-05-22T12:09:55.740Z,27.88
2023-05-22T12:12:23.358Z,27.97
2023-05-22T12:14:50.476Z,28.04
2023-05-22T12:17:20.180Z,28.16
2023-05-22T12:19:47.673Z,28.25
2023-05-22T12:22:14.963Z,28.31
2023-05-22T12:24:46.045Z,28.32
2023-05-22T12:27:14.421Z,28.32
2023-05-22T12:29:43.013Z,28.31
2023-05-22T12:32:12.280Z,28.29
2023-05-22T12:34:45.911Z,28.24
2023-05-22T12:37:21.053Z,28.17
2023-05-22T12:39:56.342Z,28.11
2023-05-22T12:42:23.658Z,28.06
2023-05-22T12:44:53.872Z,28.04
2023-05-22T12:47:23.378Z,27.99
2023-05-22T12:49:52.377Z,27.95
2023-05-22T12:52:19.670Z,27.93
2023-05-22T12:54:46.685Z,27.90
2023-05-22T12:57:13.739Z,27.89
2023-05-22T12:59:40.780Z,27.88
2023-05-22T13:02:08.152Z,27.87
2023-05-22T13:04:35.448Z,27.88
2023-05-22T13:07:03.944Z,27.90
2023-05-22T13:09:30.928Z,27.89
2023-05-22T13:11:57.951Z,27.89
2023-05-22T13:14:25.032Z,27.82
2023-05-22T13:16:51.984Z,27.74
2023-05-22T13:19:19.044Z,27.69
2023-05-22T13:21:46.030Z,27.71
2023-05-22T13:24:14.357Z,27.79
2023-05-22T13:26:41.280Z,27.87
2023-05-22T13:29:08.275Z,28.01
2023-05-22T13:31:37.425Z,28.18
2023-05-22T13:34:05.429Z,28.41
2023-05-22T13:36:33.012Z,28.59
2023-05-22T13:39:00.127Z,28.75
2023-05-22T13:41:28.588Z,28.89
2023-05-22T13:43:55.546Z,28.98
2023-05-22T13:46:22.791Z,29.05
2023-05-22T13:48:49.866Z,29.20
2023-05-22T13:51:17.005Z,29.26
2023-05-22T13:53:44.226Z,29.21
2023-05-22T13:56:11.217Z,29.14
2023-05-22T13:58:39.490Z,29.10
2023-05-22T14:01:06.416Z,29.12
2023-05-22T14:03:33.605Z,29.19
2023-05-22T14:06:00.737Z,29.26
2023-05-22T14:08:27.846Z,29.38
2023-05-22T14:10:54.855Z,29.55
2023-05-22T14:13:21.931Z,29.75
2023-05-22T14:15:50.407Z,29.87
2023-05-22T14:18:17.506Z,29.97
2023-05-22T14:20:45.970Z,30.07
2023-05-22T14:23:14.167Z,30.29
2023-05-22T14:25:43.195Z,30.30
2023-05-22T14:28:10.463Z,30.24
2023-05-22T14:30:38.078Z,30.24
2023-05-22T14:33:07.208Z,30.24
2023-05-22T14:35:34.730Z,30.27
2023-05-22T14:38:02.002Z,30.37
2023-05-22T14:40:28.941Z,30.54
2023-05-22T14:42:59.520Z,30.73
2023-05-22T14:45:26.456Z,30.92
2023-05-22T14:47:54.506Z,31.12
2023-05-22T14:50:22.937Z,31.18
2023-05-22T14:52:50.086Z,31.13
2023-05-22T14:55:17.896Z,31.07
2023-05-22T14:57:45.099Z,31.19
2023-05-22T15:00:14.103Z,31.67
2023-05-22T15:02:41.295Z,32.26
2023-05-22T15:05:09.615Z,32.73
2023-05-22T15:10:09.875Z,32.61
2023-05-22T15:12:37.005Z,32.37
2023-05-22T15:15:04.869Z,32.15
2023-05-22T15:17:32.462Z,31.97
2023-05-22T15:19:59.651Z,31.82
2023-05-22T15:22:26.670Z,31.66
2023-05-22T15:25:06.372Z,31.44
2023-05-22T15:27:35.006Z,31.28
2023-05-22T15:30:02.831Z,31.12
2023-05-22T15:32:32.164Z,30.95
2023-05-22T15:34:59.278Z,30.80
2023-05-22T15:37:26.877Z,30.69
2023-05-22T15:39:53.950Z,30.55
2023-05-22T15:42:22.291Z,30.41
2023-05-22T15:44:49.309Z,30.45
2023-05-22T15:47:16.649Z,30.56
2023-05-22T15:49:43.589Z,30.64
2023-05-22T15:52:10.651Z,30.78
2023-05-22T15:54:37.752Z,31.00
2023-05-22T15:57:05.222Z,31.17
2023-05-22T15:59:33.615Z,31.26
2023-05-22T16:02:00.747Z,31.19
2023-05-22T16:04:27.854Z,31.02
2023-05-22T16:06:54.913Z,30.81
2023-05-22T16:09:21.898Z,30.61
2023-05-22T16:11:49.170Z,30.39
2023-05-22T16:14:16.209Z,30.16
2023-05-22T16:16:44.559Z,30.31
2023-05-22T16:19:11.625Z,29.88
2023-05-22T16:21:38.954Z,29.68
2023-05-22T16:24:06.986Z,29.56
2023-05-22T16:26:34.101Z,29.46
2023-05-22T16:29:01.507Z,29.38
2023-05-22T16:31:29.878Z,29.27
2023-05-22T16:33:58.130Z,29.19
2023-05-22T16:36:26.445Z,29.19
2023-05-22T16:38:54.237Z,29.14
2023-05-22T16:41:22.828Z,29.07
2023-05-22T16:43:50.308Z,29.01
2023-05-22T16:46:18.528Z,28.94
2023-05-22T16:48:45.518Z,28.83
2023-05-22T16:51:13.920Z,28.69
2023-05-22T16:53:41.718Z,28.52
2023-05-22T16:56:08.845Z,28.38
2023-05-22T16:58:35.874Z,28.26
2023-05-22T17:01:03.203Z,28.15
2023-05-22T17:03:30.208Z,28.03
2023-05-22T17:05:57.367Z,27.90
2023-05-22T17:08:28.269Z,27.80
2023-05-22T17:10:55.690Z,27.70
2023-05-22T17:13:22.663Z,27.63
2023-05-22T17:15:50.909Z,27.56
2023-05-22T17:18:22.222Z,27.52
2023-05-22T17:20:51.124Z,27.48
2023-05-22T17:23:18.313Z,27.47
2023-05-22T17:25:46.953Z,27.47
2023-05-22T17:28:14.365Z,27.45
2023-05-22T17:30:42.245Z,27.44
2023-05-22T17:33:09.668Z,27.41
2023-05-22T17:35:36.749Z,27.38
2023-05-22T17:38:03.690Z,27.33
2023-05-22T17:40:40.391Z,27.29
2023-05-22T17:43:11.914Z,27.23
2023-05-22T17:45:39.640Z,27.19
2023-05-22T17:48:07.405Z,27.13
2023-05-22T17:50:34.447Z,27.05
2023-05-22T17:53:01.388Z,26.97
2023-05-22T17:55:28.363Z,26.92
2023-05-22T17:57:55.974Z,26.82
2023-05-22T18:00:24.363Z,26.73
2023-05-22T18:02:51.407Z,26.66
2023-05-22T18:05:18.579Z,26.58
2023-05-22T18:07:45.585Z,26.54
2023-05-22T18:10:12.576Z,26.45
2023-05-22T18:12:39.558Z,26.38
2023-05-22T18:15:09.529Z,26.33
2023-05-22T18:17:37.906Z,26.29
2023-05-22T18:20:09.227Z,26.24
2023-05-22T18:22:38.716Z,26.20
2023-05-22T18:25:07.785Z,26.16
2023-05-22T18:27:35.381Z,26.15
2023-05-22T18:30:03.462Z,26.16
2023-05-22T18:32:30.808Z,26.17
2023-05-22T18:34:59.672Z,26.19
2023-05-22T18:37:26.805Z,26.17
2023-05-22T18:39:53.866Z,26.08
2023-05-22T18:42:21.100Z,25.96
2023-05-22T18:44:49.333Z,25.90
2023-05-22T18:47:16.828Z,25.86
2023-05-22T18:49:44.550Z,25.83
2023-05-22T18:52:12.937Z,25.80
2023-05-22T18:54:40.025Z,25.78
2023-05-22T18:57:06.978Z,25.77
2023-05-22T18:59:33.984Z,25.76
2023-05-22T19:02:00.941Z,25.73
2023-05-22T19:04:27.978Z,25.70
2023-05-22T19:06:56.354Z,25.67
2023-05-22T19:09:24.717Z,25.65
2023-05-22T19:11:51.764Z,25.58
2023-05-22T19:14:18.782Z,25.52
2023-05-22T19:16:45.822Z,25.47
2023-05-22T19:19:14.546Z,25.43
2023-05-22T19:21:41.662Z,25.43
2023-05-22T19:24:08.627Z,25.43
2023-05-22T19:26:36.976Z,25.42
2023-05-22T19:29:03.965Z,25.42
2023-05-22T19:31:31.206Z,25.45
2023-05-22T19:33:58.406Z,25.45
2023-05-22T19:36:25.617Z,25.43
2023-05-22T19:38:53.701Z,25.43
2023-05-22T19:41:22.718Z,25.42
2023-05-22T19:43:51.652Z,25.37
2023-05-22T19:46:18.753Z,25.30
2023-05-22T19:48:45.832Z,25.20
2023-05-22T19:51:12.908Z,25.12
2023-05-22T19:53:41.076Z,25.05
2023-05-22T19:56:08.129Z,25.00
2023-05-22T19:58:35.082Z,24.95
2023-05-22T20:01:03.365Z,24.95
2023-05-22T20:03:30.407Z,24.92
2023-05-22T20:05:57.579Z,24.89
2023-05-22T20:08:25.332Z,24.82
2023-05-22T20:10:52.625Z,24.78
2023-05-22T20:13:19.630Z,24.72
2023-05-22T20:15:51.253Z,24.68
2023-05-22T20:18:20.731Z,24.64
2023-05-22T20:20:47.806Z,24.60
2023-05-22T20:23:14.795Z,24.58
2023-05-22T20:25:42.040Z,24.56
2023-05-22T20:28:09.168Z,24.51
2023-05-22T20:30:36.187Z,24.47
2023-05-22T20:33:03.393Z,24.42
2023-05-22T20:35:32.156Z,24.37
2023-05-22T20:38:04.183Z,24.31
2023-05-22T20:40:34.566Z,24.26
2023-05-22T20:43:04.578Z,24.20
2023-05-22T20:45:32.182Z,24.16
2023-05-22T20:47:59.274Z,24.10
2023-05-22T20:50:27.054Z,24.04
2023-05-22T20:52:55.412Z,24.00
2023-05-22T20:55:22.464Z,23.94
2023-05-22T20:57:49.395Z,23.89
2023-05-22T21:00:16.969Z,23.82
2023-05-22T21:02:44.068Z,23.74
2023-05-22T21:05:11.149Z,23.66
2023-05-22T21:07:38.143Z,23.58
2023-05-22T21:10:09.581Z,23.51
2023-05-22T21:12:36.533Z,23.42
2023-05-22T21:15:04.283Z,23.38
2023-05-22T21:17:31.715Z,23.33
2023-05-22T21:19:58.697Z,23.31
2023-05-22T21:22:25.765Z,23.28
2023-05-22T21:24:52.729Z,23.25
2023-05-22T21:27:20.973Z,23.22
2023-05-22T21:29:47.956Z,23.17
2023-05-22T21:32:15.030Z,23.14
2023-05-22T21:34:41.956Z,23.09
2023-05-22T21:37:09.154Z,23.02
2023-05-22T21:39:36.117Z,22.95
2023-05-22T21:42:03.793Z,22.90
2023-05-22T21:44:32.747Z,22.83
2023-05-22T21:46:59.802Z,22.78
2023-05-22T21:49:26.921Z,22.72
2023-05-22T21:51:53.850Z,22.67
2023-05-22T21:54:21.081Z,22.66
2023-05-22T21:56:48.047Z,22.65
2023-05-22T21:59:15.093Z,22.66
2023-05-22T22:01:43.491Z,22.67
2023-05-22T22:04:10.497Z,22.70
2023-05-22T22:06:37.788Z,22.71
2023-05-22T22:09:04.897Z,22.74
2023-05-22T22:11:31.911Z,22.75
2023-05-22T22:13:58.861Z,22.75
2023-05-22T22:16:26.055Z,22.79
2023-05-22T22:18:54.527Z,22.81
2023-05-22T22:21:26.830Z,22.82
2023-05-22T22:23:53.758Z,22.83
2023-05-22T22:26:20.842Z,22.86
2023-05-22T22:28:47.771Z,22.89
2023-05-22T22:31:14.674Z,22.90
2023-05-22T22:33:41.567Z,22.88
2023-05-22T22:36:09.865Z,22.83
2023-05-22T22:38:38.352Z,22.76
2023-05-22T22:41:08.551Z,22.71
2023-05-22T22:43:36.005Z,22.66
2023-05-22T22:46:02.971Z,22.61
2023-05-22T22:48:29.949Z,22.59
2023-05-22T22:50:58.006Z,22.57
2023-05-22T22:53:26.322Z,22.54
2023-05-22T22:55:56.735Z,22.51
2023-05-22T22:58:23.849Z,22.44
2023-05-22T23:00:50.828Z,22.40
2023-05-22T23:03:17.758Z,22.36
2023-05-22T23:05:45.018Z,22.32
2023-05-22T23:08:12.306Z,22.26
2023-05-22T23:10:40.575Z,22.18
2023-05-22T23:13:07.512Z,22.11
2023-05-22T23:15:34.547Z,22.03
2023-05-22T23:18:01.588Z,21.97
2023-05-22T23:20:28.584Z,21.91
2023-05-22T23:22:55.528Z,21.86
2023-05-22T23:25:22.509Z,21.81
2023-05-22T23:27:52.012Z,21.77
2023-05-22T23:30:19.293Z,21.71
2023-05-22T23:32:46.362Z,21.67
2023-05-22T23:35:13.378Z,21.64
2023-05-22T23:37:40.409Z,21.62
2023-05-22T23:40:09.540Z,21.59
2023-05-22T23:42:37.311Z,21.56
2023-05-22T23:45:07.427Z,21.54
2023-05-22T23:47:34.449Z,21.52
2023-05-22T23:50:01.779Z,21.50
2023-05-22T23:52:28.698Z,21.49
2023-05-22T23:54:55.619Z,21.48
2023-05-22T23:57:22.688Z,21.46
2023-05-22T23:59:49.672Z,21.48
